Time;durP1;ratioP1;P1;durP2;ratioP2;P2;SDS_P1;SDS_P2;PMS_P1;PMS_P2;Temp;Humidity;BMP_temperature;BMP_pressure;BME280_temperature;BME280_humidity;BME280_pressure;Samples;Min_cycle;Max_cycle;Signal;HPM_P1;HPM_P2
2022/03/22 00:01:17;;;;;;;63.20;46.67;;;6.10;99.90;;;;;;4962823;28;89552;-35
2022/03/22 00:03:46;;;;;;;66.32;48.20;;;6.20;99.90;;;;;;4962130;28;90422;-38
2022/03/22 00:06:12;;;;;;;60.13;46.08;;;6.30;99.90;;;;;;4962861;28;89996;-35
2022/03/22 00:08:37;;;;;;;60.03;46.13;;;6.30;99.90;;;;;;4962840;28;88469;-35
2022/03/22 00:11:03;;;;;;;60.13;46.63;;;6.30;99.90;;;;;;4962286;28;87622;-34
2022/03/22 00:13:29;;;;;;;63.47;44.63;;;6.20;99.90;;;;;;4962604;28;90098;-35
2022/03/22 00:15:55;;;;;;;60.97;47.75;;;6.20;99.90;;;;;;4996797;22;90006;-33
2022/03/22 00:18:22;;;;;;;63.90;45.95;;;6.10;99.90;;;;;;4962643;28;87491;-35
2022/03/22 00:20:49;;;;;;;56.47;45.97;;;6.10;99.90;;;;;;4962667;28;88078;-37
2022/03/22 00:23:15;;;;;;;60.58;45.28;;;6.10;99.90;;;;;;4961764;28;92225;-33
2022/03/22 00:25:41;;;;;;;60.33;46.40;;;6.00;99.90;;;;;;4961428;28;89935;-39
2022/03/22 00:28:07;;;;;;;60.75;45.70;;;6.10;99.90;;;;;;4962454;28;90121;-33
2022/03/22 00:30:34;;;;;;;54.28;46.10;;;6.10;99.90;;;;;;4962021;28;87735;-34
2022/03/22 00:33:03;;;;;;;63.65;46.13;;;6.20;99.90;;;;;;4962247;28;90729;-36
2022/03/22 00:35:30;;;;;;;62.88;48.47;;;6.30;99.90;;;;;;4962000;28;91444;-35
2022/03/22 00:37:58;;;;;;;61.38;45.35;;;6.40;99.90;;;;;;4962204;28;87955;-32
2022/03/22 00:40:25;;;;;;;64.63;47.80;;;6.50;99.90;;;;;;4961957;28;88090;-35
2022/03/22 00:42:53;;;;;;;59.72;46.47;;;6.50;99.90;;;;;;4961538;28;90388;-35
2022/03/22 00:45:20;;;;;;;;;;;6.40;99.90;;;;;;4962677;28;88721;-33
2022/03/22 00:47:48;;;;;;;56.63;44.97;;;6.40;99.90;;;;;;4963868;28;88539;-38
2022/03/22 00:50:16;;;;;;;62.20;46.45;;;6.40;99.90;;;;;;4962559;28;88947;-34
2022/03/22 00:52:43;;;;;;;54.10;44.35;;;6.40;99.90;;;;;;4961757;28;92411;-35
2022/03/22 00:55:10;;;;;;;58.40;42.30;;;6.50;99.90;;;;;;4961465;28;88854;-37
2022/03/22 00:57:36;;;;;;;64.23;43.17;;;6.50;99.90;;;;;;4960139;28;87555;-34
2022/03/22 01:00:06;;;;;;;60.67;46.38;;;6.50;99.90;;;;;;4961547;28;89761;-34
2022/03/22 01:02:34;;;;;;;57.42;46.95;;;6.40;99.90;;;;;;4962045;28;90999;-35
2022/03/22 01:05:06;;;;;;;58.93;45.43;;;6.40;99.90;;;;;;4961416;28;89746;-34
2022/03/22 01:07:33;;;;;;;51.97;44.00;;;6.30;99.90;;;;;;4962329;28;88723;-34
2022/03/22 01:10:00;;;;;;;55.80;46.47;;;6.30;99.90;;;;;;4961007;28;88023;-34
2022/03/22 01:12:25;;;;;;;61.85;46.70;;;6.30;99.90;;;;;;4961128;28;91024;-37
2022/03/22 01:14:52;;;;;;;60.33;45.45;;;6.30;99.90;;;;;;4961262;28;90236;-34
2022/03/22 01:17:18;;;;;;;66.97;47.63;;;6.30;99.90;;;;;;4961236;28;89170;-34
2022/03/22 01:19:44;;;;;;;62.58;43.53;;;6.20;99.90;;;;;;4961988;28;90006;-35
2022/03/22 01:22:10;;;;;;;61.90;46.08;;;6.30;99.90;;;;;;4961371;28;90050;-35
2022/03/22 01:24:36;;;;;;;65.05;47.45;;;6.40;99.90;;;;;;4960917;28;88401;-35
2022/03/22 01:27:01;;;;;;;64.15;48.50;;;6.50;99.90;;;;;;4961808;28;89346;-35
2022/03/22 01:29:28;;;;;;;59.53;46.60;;;6.50;99.90;;;;;;4961013;28;88277;-33
2022/03/22 01:31:55;;;;;;;61.45;48.42;;;6.50;99.90;;;;;;4961350;28;90884;-34
2022/03/22 01:34:20;;;;;;;63.75;45.25;;;6.50;99.90;;;;;;4961571;28;88699;-35
2022/03/22 01:36:46;;;;;;;58.70;47.22;;;6.50;99.90;;;;;;4960675;28;90086;-33
2022/03/22 01:39:12;;;;;;;63.38;47.33;;;6.50;99.90;;;;;;4961594;28;88280;-34
2022/03/22 01:41:37;;;;;;;59.38;47.53;;;6.40;99.90;;;;;;4960667;28;90254;-33
2022/03/22 01:44:03;;;;;;;58.63;49.28;;;6.20;99.90;;;;;;4961378;28;89625;-32
2022/03/22 01:46:29;;;;;;;58.42;46.38;;;6.10;99.90;;;;;;4961309;28;89489;-34
2022/03/22 01:48:54;;;;;;;60.70;48.03;;;6.10;99.90;;;;;;4960196;28;88422;-35
2022/03/22 01:51:21;;;;;;;63.38;48.10;;;6.10;99.90;;;;;;4961003;28;90834;-35
2022/03/22 01:53:49;;;;;;;59.40;47.83;;;6.20;99.90;;;;;;4960419;28;90073;-36
2022/03/22 01:56:15;;;;;;;58.58;47.72;;;6.10;99.90;;;;;;4960286;28;89439;-35
2022/03/22 01:58:41;;;;;;;56.85;47.05;;;6.10;99.90;;;;;;4961100;28;89732;-36
2022/03/22 02:06:36;;;;;;;61.85;46.00;;;5.70;99.90;;;;;;4961096;28;88144;-33
2022/03/22 02:09:03;;;;;;;62.95;46.85;;;5.50;99.90;;;;;;4959559;28;89818;-35
2022/03/22 02:11:28;;;;;;;61.10;48.15;;;5.50;99.90;;;;;;4960340;28;90654;-35
2022/03/22 02:13:55;;;;;;;56.60;45.80;;;5.60;99.90;;;;;;4960406;28;89712;-33
2022/03/22 02:16:21;;;;;;;65.13;49.97;;;5.80;99.90;;;;;;4960106;28;89780;-35
2022/03/22 02:18:50;;;;;;;63.35;49.53;;;5.80;99.90;;;;;;4961018;28;88974;-38
2022/03/22 02:21:18;;;;;;;57.88;48.85;;;6.00;99.90;;;;;;4960661;28;90368;-32
2022/03/22 02:23:56;;;;;;;64.50;50.28;;;6.10;99.90;;;;;;4960149;28;89603;-33
2022/03/22 02:26:24;;;;;;;64.00;49.55;;;6.10;99.90;;;;;;4960137;28;89060;-35
2022/03/22 02:28:53;;;;;;;61.80;49.50;;;6.20;99.90;;;;;;4960333;28;89532;-34
2022/03/22 02:31:20;;;;;;;57.00;46.55;;;6.10;99.90;;;;;;4960036;28;90444;-33
2022/03/22 02:33:45;;;;;;;63.67;48.42;;;6.10;99.90;;;;;;4960101;28;89799;-35
2022/03/22 02:36:11;;;;;;;65.38;50.03;;;6.10;99.90;;;;;;4959905;28;88810;-34
2022/03/22 02:38:37;;;;;;;56.45;44.33;;;6.10;99.90;;;;;;4960141;28;90334;-36
2022/03/22 02:41:03;;;;;;;58.72;49.47;;;6.00;99.90;;;;;;4960534;28;89449;-35
2022/03/22 02:43:29;;;;;;;64.07;50.85;;;5.90;99.90;;;;;;4960199;28;90202;-34
2022/03/22 02:45:55;;;;;;;62.17;48.55;;;5.90;99.90;;;;;;4959870;28;87888;-34
2022/03/22 02:48:20;;;;;;;62.65;48.70;;;6.00;99.90;;;;;;4960034;28;87445;-36
2022/03/22 02:50:46;;;;;;;55.58;44.83;;;5.90;99.90;;;;;;4959655;28;90221;-33
2022/03/22 02:53:11;;;;;;;58.05;46.35;;;5.80;99.90;;;;;;4960481;28;89916;-34
2022/03/22 02:55:37;;;;;;;60.40;47.05;;;5.70;99.90;;;;;;4959542;28;87595;-34
2022/03/22 02:58:03;;;;;;;64.35;47.30;;;5.70;99.90;;;;;;4960741;28;87628;-34
2022/03/22 03:00:29;;;;;;;61.30;46.72;;;5.80;99.90;;;;;;4959688;28;90804;-36
2022/03/22 03:02:55;;;;;;;60.25;47.75;;;5.80;99.90;;;;;;4959569;28;89501;-34
2022/03/22 03:05:22;;;;;;;58.20;47.38;;;5.70;99.90;;;;;;4959856;28;87755;-33
2022/03/22 03:07:49;;;;;;;59.78;47.17;;;5.70;99.90;;;;;;4960190;28;89467;-37
2022/03/22 03:10:15;;;;;;;61.70;45.78;;;5.60;99.90;;;;;;4959692;28;90243;-35
2022/03/22 03:12:41;;;;;;;56.05;45.20;;;5.60;99.90;;;;;;4960160;28;90345;-33
2022/03/22 03:15:08;;;;;;;65.50;49.35;;;5.60;99.90;;;;;;4959337;28;88582;-33
2022/03/22 03:17:34;;;;;;;56.83;47.88;;;5.60;99.90;;;;;;4960408;28;89421;-38
2022/03/22 03:20:01;;;;;;;65.07;50.83;;;5.60;99.90;;;;;;4962312;28;90527;-34
2022/03/22 03:22:27;;;;;;;62.00;49.20;;;5.60;99.90;;;;;;4962998;28;89735;-36
2022/03/22 03:24:52;;;;;;;60.00;48.47;;;5.70;99.90;;;;;;4963361;28;88355;-35
2022/03/22 03:27:18;;;;;;;60.60;48.10;;;5.70;99.90;;;;;;4963542;28;89034;-33
2022/03/22 03:29:44;;;;;;;66.50;52.40;;;5.70;99.90;;;;;;4963335;28;90274;-38
2022/03/22 03:32:09;;;;;;;58.83;47.15;;;5.70;99.90;;;;;;4963389;28;89796;-35
2022/03/22 03:34:36;;;;;;;65.60;52.00;;;5.70;99.90;;;;;;4962974;28;88530;-35
2022/03/22 03:37:01;;;;;;;56.13;46.95;;;5.80;99.90;;;;;;4963265;28;87862;-33
2022/03/22 03:39:27;;;;;;;63.58;48.72;;;5.80;99.90;;;;;;4962891;28;89620;-33
2022/03/22 03:42:00;;;;;;;64.05;50.03;;;5.70;99.90;;;;;;4962963;28;90470;-34
2022/03/22 03:47:16;;;;;;;56.72;48.65;;;5.70;99.90;;;;;;4963048;28;89623;-34
2022/03/22 03:49:46;;;;;;;62.47;48.35;;;5.70;99.90;;;;;;4962012;28;89093;-35
2022/03/22 03:52:17;;;;;;;61.00;50.42;;;5.70;99.90;;;;;;4962567;28;89473;-34
2022/03/22 03:54:43;;;;;;;67.22;49.30;;;5.60;99.90;;;;;;4962644;28;87639;-34
2022/03/22 03:57:09;;;;;;;63.13;52.72;;;5.60;99.90;;;;;;4962801;28;88647;-37
2022/03/22 03:59:36;;;;;;;66.40;53.67;;;5.60;99.90;;;;;;4962643;28;90210;-35
2022/03/22 04:02:03;;;;;;;65.85;51.70;;;5.60;99.90;;;;;;4962525;28;89754;-34
2022/03/22 04:04:29;;;;;;;58.47;48.63;;;5.70;99.90;;;;;;4962898;28;89111;-34
2022/03/22 04:06:54;;;;;;;65.65;50.92;;;5.60;99.90;;;;;;4962979;28;88695;-33
2022/03/22 04:09:20;;;;;;;66.85;50.10;;;5.60;99.90;;;;;;4962127;28;90783;-36
2022/03/22 04:11:45;;;;;;;65.93;52.15;;;5.60;99.90;;;;;;4962319;28;89493;-34
2022/03/22 04:14:11;;;;;;;64.53;51.25;;;5.60;99.90;;;;;;4962293;28;87573;-34
2022/03/22 04:16:37;;;;;;;69.90;53.28;;;5.50;99.90;;;;;;4961897;28;88131;-38
2022/03/22 04:19:07;;;;;;;63.08;52.90;;;5.50;99.90;;;;;;4962655;28;90324;-34
2022/03/22 04:21:36;;;;;;;66.88;51.45;;;5.50;99.90;;;;;;4962586;28;88817;-33
2022/03/22 04:24:05;;;;;;;60.72;50.90;;;5.50;99.90;;;;;;4962268;28;89897;-34
2022/03/22 04:26:35;;;;;;;64.40;50.10;;;5.50;99.90;;;;;;4962282;28;89993;-35
2022/03/22 04:34:31;;;;;;;64.93;51.53;;;5.60;99.90;;;;;;4962447;28;88219;-32
2022/03/22 04:36:57;;;;;;;63.17;49.15;;;5.50;99.90;;;;;;4961430;28;87612;-34
2022/03/22 04:39:27;;;;;;;63.83;50.20;;;5.40;99.90;;;;;;4961977;28;89079;-37
2022/03/22 04:41:53;;;;;;;63.25;50.85;;;5.40;99.90;;;;;;4962123;28;89874;-35
2022/03/22 04:44:19;;;;;;;63.10;51.17;;;5.40;99.90;;;;;;4962420;28;88722;-32
2022/03/22 04:46:45;;;;;;;67.70;52.83;;;5.50;99.90;;;;;;4961588;28;88445;-33
2022/03/22 04:49:11;;;;;;;67.60;52.55;;;5.50;99.90;;;;;;4961988;28;90429;-37
2022/03/22 04:57:05;;;;;;;63.33;51.45;;;5.50;99.90;;;;;;4962222;28;90075;-33
2022/03/22 04:59:31;;;;;;;64.75;51.10;;;5.50;99.90;;;;;;4961366;28;90408;-35
2022/03/22 05:01:57;;;;;;;61.05;49.42;;;5.50;99.90;;;;;;4962022;28;89695;-35
2022/03/22 05:04:23;;;;;;;64.57;51.03;;;5.40;99.90;;;;;;4961448;28;88829;-37
2022/03/22 05:06:49;;;;;;;63.65;50.63;;;5.20;99.90;;;;;;4960993;28;87683;-34
2022/03/22 05:09:14;;;;;;;63.58;49.05;;;5.10;99.90;;;;;;4961340;28;90728;-33
2022/03/22 05:11:40;;;;;;;62.00;51.30;;;5.00;99.90;;;;;;4960848;28;89015;-33
2022/03/22 05:14:06;;;;;;;57.30;48.45;;;5.10;99.90;;;;;;4962034;28;87947;-35
2022/03/22 05:16:35;;;;;;;53.88;47.53;;;4.90;99.90;;;;;;4961426;28;89301;-35
2022/03/22 05:19:01;;;;;;;64.38;49.38;;;4.90;99.90;;;;;;4960933;28;90164;-37
2022/03/22 05:21:27;;;;;;;63.97;48.00;;;4.90;99.90;;;;;;4961344;28;90672;-38
2022/03/22 05:23:53;;;;;;;60.38;49.85;;;4.80;99.90;;;;;;4961466;28;89583;-37
2022/03/22 05:26:19;;;;;;;62.72;49.50;;;4.90;99.90;;;;;;4961373;28;88246;-33
2022/03/22 05:28:45;;;;;;;66.30;51.38;;;4.90;99.90;;;;;;4961949;28;90349;-33
2022/03/22 05:31:12;;;;;;;61.47;49.05;;;5.00;99.90;;;;;;4960843;28;89607;-35
2022/03/22 05:33:41;;;;;;;58.73;48.13;;;5.10;99.90;;;;;;4960443;28;87886;-34
2022/03/22 05:36:08;;;;;;;62.28;51.10;;;5.00;99.90;;;;;;4961336;28;89252;-37
2022/03/22 05:38:34;;;;;;;63.95;50.17;;;5.00;99.90;;;;;;4961449;28;90516;-36
2022/03/22 05:41:02;;;;;;;62.50;49.97;;;5.10;99.90;;;;;;4960967;28;89133;-36
2022/03/22 05:43:27;;;;;;;61.08;49.78;;;5.10;99.90;;;;;;4959586;28;87610;-34
2022/03/22 05:45:53;;;;;;;60.80;49.25;;;5.00;99.90;;;;;;4961205;28;90194;-35
2022/03/22 05:48:20;;;;;;;60.33;49.45;;;4.90;99.90;;;;;;4960759;28;90191;-36
2022/03/22 05:50:46;;;;;;;65.38;47.85;;;4.80;99.90;;;;;;4960967;28;90151;-33
2022/03/22 05:53:12;;;;;;;53.63;47.42;;;4.80;99.90;;;;;;4961370;28;87857;-34
2022/03/22 05:55:38;;;;;;;61.35;50.17;;;4.70;99.90;;;;;;4960065;28;88445;-34
2022/03/22 05:58:04;;;;;;;63.63;48.80;;;4.70;99.90;;;;;;4961105;28;90177;-34
2022/03/22 06:00:30;;;;;;;58.28;51.80;;;4.70;99.90;;;;;;4960745;28;89991;-34
2022/03/22 06:02:55;;;;;;;69.28;50.20;;;4.80;99.90;;;;;;4960812;28;87472;-37
2022/03/22 06:05:21;;;;;;;66.25;49.47;;;4.80;99.90;;;;;;4960913;28;88781;-36
2022/03/22 06:07:47;;;;;;;63.25;50.55;;;4.80;99.90;;;;;;4959877;28;90102;-33
2022/03/22 06:10:13;;;;;;;65.93;48.88;;;4.80;99.90;;;;;;4960696;28;89504;-35
2022/03/22 06:12:53;;;;;;;60.40;49.03;;;4.80;99.90;;;;;;4960896;28;89550;-34
2022/03/22 06:15:21;;;;;;;57.47;47.67;;;4.80;99.90;;;;;;4960808;28;89820;-34
2022/03/22 06:17:56;;;;;;;55.88;45.47;;;4.90;99.90;;;;;;4960044;28;91629;-35
2022/03/22 06:20:23;;;;;;;67.25;48.20;;;4.80;99.90;;;;;;4960377;28;90844;-36
2022/03/22 06:22:49;;;;;;;64.90;50.28;;;4.90;99.90;;;;;;4960424;28;87774;-35
2022/03/22 06:25:16;;;;;;;59.08;50.08;;;4.90;99.90;;;;;;4960440;28;90287;-36
2022/03/22 06:27:43;;;;;;;64.88;50.22;;;5.00;99.90;;;;;;4960624;28;90503;-35
2022/03/22 06:30:10;;;;;;;61.67;50.30;;;5.10;99.90;;;;;;4960470;28;89736;-37
2022/03/22 06:32:50;;;;;;;57.97;48.55;;;5.20;99.90;;;;;;4960730;28;89761;-34
2022/03/22 06:35:24;;;;;;;63.10;51.33;;;5.30;99.90;;;;;;4960551;28;87441;-34
2022/03/22 06:37:50;;;;;;;66.38;50.63;;;5.40;99.90;;;;;;4960092;28;90627;-33
2022/03/22 06:40:18;;;;;;;65.93;49.83;;;5.50;99.90;;;;;;4960535;28;89226;-33
2022/03/22 06:42:45;;;;;;;68.55;51.22;;;5.70;99.90;;;;;;4960264;28;89462;-34
2022/03/22 06:45:11;;;;;;;62.30;48.67;;;5.80;99.90;;;;;;4958899;28;89703;-33
2022/03/22 06:47:39;;;;;;;66.70;48.55;;;5.90;99.90;;;;;;4960198;28;90081;-37
2022/03/22 06:50:06;;;;;;;60.05;45.13;;;6.10;99.90;;;;;;4960539;28;89631;-36
2022/03/22 06:52:32;;;;;;;58.75;48.28;;;6.30;99.90;;;;;;4960345;28;88818;-34
2022/03/22 06:54:58;;;;;;;58.63;49.63;;;6.40;99.90;;;;;;4957418;28;88234;-34
2022/03/22 06:57:24;;;;;;;58.05;45.90;;;6.60;99.90;;;;;;4958708;28;90723;-34
2022/03/22 06:59:49;;;;;;;61.30;48.95;;;6.70;99.90;;;;;;4957930;28;89768;-36
2022/03/22 07:02:18;;;;;;;62.38;49.13;;;6.90;99.90;;;;;;4959182;28;88207;-35
2022/03/22 07:04:45;;;;;;;57.03;44.83;;;7.00;99.90;;;;;;4978479;28;95343;-38
2022/03/22 07:07:11;;;;;;;58.00;46.10;;;7.10;99.90;;;;;;4977473;28;90025;-34
2022/03/22 07:09:36;;;;;;;61.88;47.60;;;7.10;99.90;;;;;;4977519;28;90249;-35
2022/03/22 07:12:02;;;;;;;60.70;48.20;;;7.10;99.90;;;;;;4959897;28;89601;-35
2022/03/22 07:14:28;;;;;;;63.17;49.97;;;7.20;99.90;;;;;;4978241;28;88129;-34
2022/03/22 07:16:54;;;;;;;55.05;47.78;;;7.40;99.90;;;;;;4977523;28;91222;-33
2022/03/22 07:19:22;;;;;;;62.53;47.40;;;7.60;99.90;;;;;;4977180;28;89596;-37
2022/03/22 07:21:48;;;;;;;58.80;47.58;;;7.80;99.90;;;;;;4977259;28;89264;-33
2022/03/22 07:24:16;;;;;;;59.25;47.47;;;8.00;99.90;;;;;;4978412;28;88840;-36
2022/03/22 07:26:42;;;;;;;63.80;46.50;;;8.30;99.90;;;;;;4977441;28;90744;-33
2022/03/22 07:29:08;;;;;;;63.60;48.13;;;8.40;99.90;;;;;;4976813;28;89545;-34
2022/03/22 07:31:37;;;;;;;63.60;46.65;;;8.50;99.90;;;;;;4977310;28;88958;-34
2022/03/22 07:34:08;;;;;;;53.63;46.50;;;8.70;99.90;;;;;;4977191;28;87636;-35
2022/03/22 07:36:37;;;;;;;62.45;43.72;;;8.80;99.90;;;;;;4977515;28;90824;-34
2022/03/22 07:39:03;;;;;;;58.92;44.47;;;8.90;99.90;;;;;;4977976;28;89382;-34
2022/03/22 07:41:29;;;;;;;50.38;43.90;;;9.00;99.90;;;;;;4977739;28;89636;-34
2022/03/22 07:43:55;;;;;;;53.03;42.83;;;9.10;99.90;;;;;;4976851;28;89146;-36
2022/03/22 07:46:23;;;;;;;51.95;43.38;;;9.20;99.90;;;;;;4983929;28;90408;-35
2022/03/22 07:48:49;;;;;;;55.70;42.78;;;9.30;99.90;;;;;;4996841;28;89806;-36
2022/03/22 07:54:16;;;;;;;66.55;46.60;;;10.00;99.90;;;;;;4934997;28;89224;-35
2022/03/22 07:56:42;;;;;;;52.97;42.85;;;10.30;99.90;;;;;;4982798;28;95714;-35
2022/03/22 07:59:07;;;;;;;47.13;40.20;;;10.30;99.90;;;;;;4997291;28;89860;-35
2022/03/22 08:01:33;;;;;;;50.78;41.05;;;10.40;99.90;;;;;;4978841;28;88898;-36
2022/03/22 08:03:59;;;;;;;56.55;44.47;;;10.70;99.90;;;;;;4997148;28;87680;-36
2022/03/22 08:06:24;;;;;;;46.22;39.38;;;10.80;99.90;;;;;;4998331;28;90280;-36
2022/03/22 08:08:50;;;;;;;51.10;41.25;;;10.90;99.90;;;;;;5000207;28;91142;-33
2022/03/22 08:11:15;;;;;;;55.30;42.13;;;11.20;99.90;;;;;;5000182;28;89594;-33
2022/03/22 08:13:41;;;;;;;57.83;41.63;;;11.50;99.90;;;;;;4999818;28;88058;-34
2022/03/22 08:16:07;;;;;;;47.80;39.25;;;11.60;99.90;;;;;;5000035;28;90006;-37
2022/03/22 08:18:33;;;;;;;62.15;40.55;;;11.70;99.90;;;;;;5000174;28;89806;-35
2022/03/22 08:20:59;;;;;;;50.08;38.78;;;11.80;99.90;;;;;;4999437;28;90052;-37
2022/03/22 08:23:24;;;;;;;46.97;38.85;;;12.00;99.90;;;;;;5000428;28;89043;-37
2022/03/22 08:25:51;;;;;;;51.30;38.70;;;12.20;99.90;;;;;;4999501;28;89224;-36
2022/03/22 08:28:17;;;;;;;45.13;37.75;;;12.40;99.90;;;;;;5000419;28;89663;-37
2022/03/22 08:30:44;;;;;;;50.28;36.33;;;12.60;99.90;;;;;;4999726;28;88552;-34
2022/03/22 08:33:11;;;;;;;45.50;39.20;;;12.80;99.90;;;;;;5000102;28;88486;-36
2022/03/22 08:35:41;;;;;;;52.72;35.88;;;13.10;99.90;;;;;;4999091;28;90774;-34
2022/03/22 08:38:08;;;;;;;45.25;38.00;;;13.20;99.90;;;;;;5000000;28;91294;-38
2022/03/22 08:40:34;;;;;;;43.20;35.60;;;13.30;99.90;;;;;;4999970;28;88858;-36
2022/03/22 08:43:02;;;;;;;47.05;36.08;;;13.20;99.90;;;;;;4999861;28;89678;-34
2022/03/22 08:45:28;;;;;;;42.00;32.78;;;13.30;99.90;;;;;;4999323;28;90394;-35
2022/03/22 08:47:54;;;;;;;41.25;33.15;;;13.30;99.90;;;;;;4999586;28;89473;-36
2022/03/22 08:50:22;;;;;;;41.78;34.50;;;13.40;99.90;;;;;;5000210;28;88288;-36
2022/03/22 08:52:49;;;;;;;42.35;36.97;;;13.50;99.90;;;;;;4998790;28;88785;-37
2022/03/22 08:55:17;;;;;;;49.75;36.13;;;13.70;99.90;;;;;;4999493;28;90302;-34
2022/03/22 08:57:44;;;;;;;49.65;35.25;;;13.70;99.90;;;;;;4999881;28;89232;-35
2022/03/22 09:00:11;;;;;;;37.90;31.48;;;13.80;99.90;;;;;;4999343;28;89545;-33
2022/03/22 09:02:38;;;;;;;44.63;33.45;;;14.10;99.90;;;;;;4999507;28;88975;-37
2022/03/22 09:07:50;;;;;;;43.40;33.30;;;14.50;99.90;;;;;;4999067;28;89775;-36
2022/03/22 09:10:18;;;;;;;46.33;34.67;;;14.50;99.90;;;;;;4999441;28;89261;-35
2022/03/22 09:12:44;;;;;;;37.83;30.77;;;14.60;99.90;;;;;;4981022;28;90352;-34
2022/03/22 09:15:11;;;;;;;43.40;35.40;;;14.80;99.90;;;;;;4998686;28;90808;-34
2022/03/22 09:17:39;;;;;;;39.28;32.17;;;15.10;99.90;;;;;;4998438;28;89831;-33
2022/03/22 09:20:06;;;;;;;40.38;32.80;;;14.80;99.90;;;;;;4999285;28;89684;-36
2022/03/22 09:22:31;;;;;;;43.42;33.03;;;14.90;99.90;;;;;;4999244;28;87927;-34
2022/03/22 09:24:57;;;;;;;49.65;34.33;;;15.10;99.90;;;;;;4998381;28;91548;-38
2022/03/22 09:27:25;;;;;;;43.78;28.95;;;15.30;99.90;;;;;;4998865;28;93969;-33
2022/03/22 09:29:51;;;;;;;44.08;32.30;;;15.30;95.50;;;;;;4999124;28;88631;-35
2022/03/22 09:32:16;;;;;;;39.33;32.50;;;15.40;99.90;;;;;;4998963;28;89980;-35
2022/03/22 09:34:43;;;;;;;42.92;30.05;;;15.80;94.80;;;;;;4998750;28;90159;-34
2022/03/22 09:37:09;;;;;;;39.78;31.60;;;15.90;92.70;;;;;;4999276;28;89791;-38
2022/03/22 09:39:35;;;;;;;41.38;29.17;;;16.10;95.00;;;;;;4998337;28;88805;-40
2022/03/22 09:42:04;;;;;;;41.75;30.75;;;16.10;92.20;;;;;;4999633;28;90797;-36
2022/03/22 09:44:31;;;;;;;37.53;30.33;;;16.20;79.40;;;;;;4999800;28;90146;-35
2022/03/22 09:46:57;;;;;;;34.53;28.15;;;16.20;80.10;;;;;;4980472;28;89776;-36
2022/03/22 09:49:23;;;;;;;36.50;28.30;;;16.60;83.10;;;;;;4998430;28;88295;-34
2022/03/22 09:51:49;;;;;;;34.85;26.63;;;16.70;70.90;;;;;;4999062;28;89325;-37
2022/03/22 09:54:19;;;;;;;35.08;25.98;;;16.60;69.50;;;;;;4999035;28;90242;-35
2022/03/22 09:56:46;;;;;;;32.92;24.60;;;17.00;66.90;;;;;;4998676;28;89650;-35
2022/03/22 09:59:12;;;;;;;32.05;22.27;;;17.20;63.60;;;;;;4998786;28;88597;-34
2022/03/22 10:01:38;;;;;;;31.75;24.17;;;17.20;58.10;;;;;;4998962;28;89434;-34
2022/03/22 10:04:09;;;;;;;31.80;24.23;;;17.30;59.10;;;;;;4998592;28;90172;-37
2022/03/22 10:06:35;;;;;;;30.20;23.50;;;17.20;54.50;;;;;;4999106;28;89917;-35
2022/03/22 10:09:04;;;;;;;30.50;22.63;;;17.10;56.60;;;;;;4997862;28;88195;-37
2022/03/22 10:11:35;;;;;;;33.25;22.50;;;17.40;57.80;;;;;;4998213;28;88707;-36
2022/03/22 10:14:01;;;;;;;28.63;21.25;;;17.30;56.00;;;;;;4997527;28;90193;-37
2022/03/22 10:16:27;;;;;;;37.05;23.90;;;17.60;56.90;;;;;;4998135;28;89775;-35
2022/03/22 10:18:53;;;;;;;35.75;25.73;;;17.60;56.20;;;;;;4998971;28;88767;-39
2022/03/22 10:21:19;;;;;;;28.92;22.83;;;17.40;55.80;;;;;;4997843;28;87983;-40
2022/03/22 10:23:53;;;;;;;34.25;24.08;;;17.50;55.40;;;;;;4998314;28;90041;-36
2022/03/22 10:26:19;;;;;;;25.73;21.40;;;17.50;55.10;;;;;;4997906;28;89990;-36
2022/03/22 10:29:04;;;;;;;25.08;20.80;;;17.70;56.00;;;;;;4997861;28;88225;-37
2022/03/22 10:31:34;;;;;;;36.72;22.77;;;17.90;56.30;;;;;;4997795;28;88619;-38
2022/03/22 10:34:00;;;;;;;28.85;23.38;;;18.10;56.70;;;;;;4997737;28;90385;-36
2022/03/22 10:36:26;;;;;;;28.63;23.90;;;17.90;56.10;;;;;;4997125;28;89998;-35
2022/03/22 10:38:57;;;;;;;33.15;23.42;;;18.00;58.30;;;;;;4998028;28;87637;-37
2022/03/22 10:41:30;;;;;;;35.90;25.80;;;17.90;55.70;;;;;;4998904;28;88564;-37
2022/03/22 10:44:15;;;;;;;33.03;23.25;;;18.00;56.30;;;;;;4997496;28;90449;-38
2022/03/22 10:46:43;;;;;;;34.00;22.77;;;18.00;56.80;;;;;;4997612;28;89708;-37
2022/03/22 10:49:11;;;;;;;29.07;19.90;;;18.40;57.00;;;;;;4997979;28;89842;-38
2022/03/22 10:51:46;;;;;;;32.63;23.10;;;18.30;55.00;;;;;;4997106;28;88885;-37
2022/03/22 10:54:15;;;;;;;29.75;24.52;;;18.00;53.30;;;;;;4997607;28;90501;-40
2022/03/22 10:56:53;;;;;;;33.67;23.45;;;18.40;58.60;;;;;;4997456;28;89718;-39
2022/03/22 10:59:24;;;;;;;30.85;22.65;;;18.20;55.40;;;;;;4997182;28;90284;-39
2022/03/22 11:01:52;;;;;;;27.23;22.60;;;18.20;56.10;;;;;;4963227;28;89561;-39
2022/03/22 11:04:19;;;;;;;26.42;22.58;;;18.50;56.10;;;;;;4998069;28;90476;-34
2022/03/22 11:06:46;;;;;;;26.87;21.43;;;18.50;55.10;;;;;;4997588;28;90041;-37
2022/03/22 11:09:24;;;;;;;35.40;26.05;;;18.60;54.90;;;;;;4997813;28;87959;-33
2022/03/22 11:11:50;;;;;;;32.58;23.17;;;18.20;54.90;;;;;;4997407;28;89278;-36
2022/03/22 11:14:17;;;;;;;33.08;23.02;;;18.10;55.50;;;;;;4997877;28;90041;-36
2022/03/22 11:16:48;;;;;;;32.05;24.33;;;18.30;56.20;;;;;;4996876;28;89718;-36
2022/03/22 11:19:16;;;;;;;29.40;23.48;;;18.20;57.00;;;;;;4998284;28;89540;-35
2022/03/22 11:21:41;;;;;;;29.13;23.60;;;18.40;55.90;;;;;;4997617;28;89055;-37
2022/03/22 11:24:09;;;;;;;36.53;23.58;;;18.60;55.80;;;;;;4997074;28;89937;-35
2022/03/22 11:26:42;;;;;;;;;;;18.60;55.40;;;;;;4997513;28;89848;-39
2022/03/22 11:29:17;;;;;;;29.85;22.52;;;18.70;53.70;;;;;;4999542;28;89370;-38
2022/03/22 11:34:09;;;;;;;28.13;20.10;;;18.70;54.70;;;;;;4997836;28;89341;-34
2022/03/22 11:34:33;;;;;;;33.92;23.08;;;18.80;55.10;;;;;;4997200;28;90583;-38
2022/03/22 11:37:00;;;;;;;34.95;23.67;;;18.90;53.70;;;;;;4997212;28;90609;-35
2022/03/22 11:42:19;;;;;;;35.17;22.73;;;18.70;53.50;;;;;;5000218;28;87703;-36
2022/03/22 11:44:56;;;;;;;29.38;20.50;;;19.00;55.00;;;;;;5000832;28;90315;-38
2022/03/22 11:47:22;;;;;;;34.65;24.83;;;18.70;53.70;;;;;;4999919;28;89488;-40
2022/03/22 11:50:04;;;;;;;38.38;21.92;;;18.90;55.60;;;;;;5000882;28;89515;-35
2022/03/22 11:52:40;;;;;;;30.42;22.60;;;19.10;55.50;;;;;;5000031;28;89721;-37
2022/03/22 11:55:15;;;;;;;31.50;24.33;;;19.30;55.50;;;;;;5000942;28;90230;-37
2022/03/22 11:57:47;;;;;;;29.08;21.65;;;19.30;54.40;;;;;;4999952;28;89705;-38
2022/03/22 12:00:15;;;;;;;31.08;22.08;;;19.10;55.00;;;;;;4910480;27;88486;-38
2022/03/22 12:02:44;;;;;;;31.58;22.83;;;19.10;55.20;;;;;;4939155;28;90820;-37
2022/03/22 12:05:10;;;;;;;33.85;22.70;;;19.20;54.40;;;;;;4942128;28;96557;-35
2022/03/22 12:07:39;;;;;;;28.20;23.45;;;19.20;54.50;;;;;;4999797;28;89585;-35
2022/03/22 12:10:20;;;;;;;31.27;23.20;;;19.30;54.60;;;;;;5000475;28;89276;-35
2022/03/22 12:12:49;;;;;;;31.13;23.77;;;19.30;54.20;;;;;;5000113;28;89360;-34
2022/03/22 12:15:20;;;;;;;33.17;21.85;;;19.20;54.90;;;;;;5039453;22;92360;-34
2022/03/22 12:17:46;;;;;;;29.40;21.67;;;19.20;54.70;;;;;;4998648;28;89922;-35
2022/03/22 12:20:19;;;;;;;32.50;25.65;;;19.30;53.80;;;;;;5000674;28;89609;-35
2022/03/22 12:22:55;;;;;;;30.38;19.73;;;19.40;54.60;;;;;;5000038;28;89856;-37
2022/03/22 12:25:23;;;;;;;31.33;21.88;;;19.00;52.40;;;;;;5000690;28;89997;-40
2022/03/22 12:27:56;;;;;;;;;;;19.00;53.10;;;;;;5000828;28;89775;-37
2022/03/22 12:30:26;;;;;;;31.77;22.58;;;19.10;53.50;;;;;;5002870;28;88204;-35
2022/03/22 12:32:54;;;;;;;33.47;24.85;;;19.10;53.70;;;;;;5000267;28;87506;-37
2022/03/22 12:35:21;;;;;;;35.65;22.60;;;19.30;53.00;;;;;;4998262;28;90378;-37
2022/03/22 12:37:48;;;;;;;33.35;22.98;;;19.30;52.60;;;;;;5000237;28;89574;-35
2022/03/22 12:40:18;;;;;;;31.50;23.08;;;19.10;52.70;;;;;;5000569;28;89760;-36
2022/03/22 12:42:45;;;;;;;36.95;25.92;;;19.30;52.80;;;;;;4999974;28;89351;-37
2022/03/22 12:45:12;;;;;;;35.42;24.42;;;19.20;51.90;;;;;;5000220;28;90716;-36
2022/03/22 12:47:39;;;;;;;38.60;23.58;;;19.40;55.00;;;;;;4999099;28;89621;-35
2022/03/22 12:50:07;;;;;;;32.80;23.33;;;19.60;54.20;;;;;;5000120;28;87786;-37
2022/03/22 12:52:33;;;;;;;34.60;22.00;;;19.50;54.40;;;;;;4999473;28;88525;-36
2022/03/22 12:54:59;;;;;;;34.28;23.20;;;19.60;53.40;;;;;;4999602;28;89887;-34
2022/03/22 12:57:24;;;;;;;31.85;23.58;;;19.50;52.50;;;;;;5000072;28;89332;-36
2022/03/22 12:59:50;;;;;;;33.28;24.02;;;19.50;52.60;;;;;;4999334;28;87553;-37
2022/03/22 13:02:18;;;;;;;36.58;23.58;;;19.40;51.20;;;;;;4999888;28;89658;-41